createdAt,value
2022-09-04T00:00:53.053Z,980.88
2022-09-04T00:01:52.942Z,980.92
2022-09-04T00:02:53.052Z,980.89
2022-09-04T00:03:53.394Z,980.92
2022-09-04T00:04:53.196Z,980.90
2022-09-04T00:05:52.911Z,980.84
2022-09-04T00:06:52.873Z,980.85
2022-09-04T00:07:52.886Z,980.78
2022-09-04T00:08:52.966Z,980.77
2022-09-04T00:09:52.866Z,980.78
2022-09-04T00:10:53.017Z,980.81
2022-09-04T00:11:52.869Z,980.82
2022-09-04T00:12:52.808Z,980.82
2022-09-04T00:13:52.867Z,980.82
2022-09-04T00:14:52.906Z,980.85
2022-09-04T00:15:52.868Z,980.83
2022-09-04T00:16:53.114Z,980.88
2022-09-04T00:17:52.898Z,980.89
2022-09-04T00:18:52.721Z,980.92
2022-09-04T00:19:52.781Z,980.92
2022-09-04T00:20:52.724Z,980.89
2022-09-04T00:21:52.671Z,980.93
2022-09-04T00:22:52.701Z,980.95
2022-09-04T00:23:52.873Z,980.97
2022-09-04T00:24:52.771Z,980.99
2022-09-04T00:25:52.612Z,981.03
2022-09-04T00:26:52.722Z,980.97
2022-09-04T00:27:52.592Z,980.99
2022-09-04T00:28:52.692Z,981.03
2022-09-04T00:29:52.631Z,981.01
2022-09-04T00:30:52.757Z,980.99
2022-09-04T00:31:52.559Z,981.00
2022-09-04T00:32:52.726Z,980.95
2022-09-04T00:33:52.547Z,981.02
2022-09-04T00:34:53.039Z,981.03
2022-09-04T00:35:52.586Z,981.01
2022-09-04T00:36:52.479Z,981.00
2022-09-04T00:37:52.556Z,981.03
2022-09-04T00:38:52.717Z,981.01
2022-09-04T00:39:52.654Z,981.05
2022-09-04T00:40:52.407Z,981.02
2022-09-04T00:41:52.442Z,981.06
2022-09-04T00:42:52.401Z,981.06
2022-09-04T00:43:52.562Z,981.06
2022-09-04T00:44:52.471Z,981.03
2022-09-04T00:45:52.656Z,981.08
2022-09-04T00:46:52.383Z,981.04
2022-09-04T00:47:52.332Z,981.06
2022-09-04T00:48:52.303Z,981.04
2022-09-04T00:49:52.291Z,981.01
2022-09-04T00:50:52.491Z,981.04
2022-09-04T00:51:52.261Z,981.01
2022-09-04T00:52:53.708Z,980.99
2022-09-04T00:53:52.277Z,981.07
2022-09-04T00:54:52.226Z,981.01
2022-09-04T00:55:52.307Z,981.04
2022-09-04T00:56:52.397Z,981.05
2022-09-04T00:57:52.218Z,981.04
2022-09-04T00:58:52.167Z,981.04
2022-09-04T00:59:52.247Z,981.04
2022-09-04T01:00:52.505Z,981.03
2022-09-04T01:01:52.333Z,981.03
2022-09-04T01:02:52.117Z,981.06
2022-09-04T01:03:52.216Z,981.03
2022-09-04T01:04:52.122Z,981.07
2022-09-04T01:05:52.322Z,981.05
2022-09-04T01:06:52.082Z,981.04
2022-09-04T01:07:52.242Z,981.04
2022-09-04T01:08:56.012Z,981.06
2022-09-04T01:09:52.033Z,981.03
2022-09-04T01:10:52.082Z,981.07
2022-09-04T01:11:52.071Z,981.08
2022-09-04T01:12:52.082Z,981.03
2022-09-04T01:13:52.243Z,981.06
2022-09-04T01:14:52.981Z,981.06
2022-09-04T01:15:51.932Z,981.14
2022-09-04T01:16:52.078Z,981.10
2022-09-04T01:17:51.946Z,981.09
2022-09-04T01:18:51.916Z,981.11
2022-09-04T01:19:51.917Z,981.09
2022-09-04T01:20:51.889Z,981.13
2022-09-04T01:21:52.239Z,981.09
2022-09-04T01:22:51.848Z,981.07
2022-09-04T01:23:51.918Z,981.10
2022-09-04T01:24:52.057Z,981.14
2022-09-04T01:25:51.896Z,981.11
2022-09-04T01:26:51.866Z,981.19
2022-09-04T01:27:51.896Z,981.22
2022-09-04T01:28:51.801Z,981.22
2022-09-04T01:29:51.934Z,981.18
2022-09-04T01:30:51.742Z,981.24
2022-09-04T01:31:51.903Z,981.28
2022-09-04T01:32:51.762Z,981.21
2022-09-04T01:33:51.903Z,981.20
2022-09-04T01:34:51.763Z,981.15
2022-09-04T01:35:51.682Z,981.19
2022-09-04T01:36:51.741Z,981.18
2022-09-04T01:37:51.971Z,981.14
2022-09-04T01:38:51.743Z,981.17
2022-09-04T01:39:51.717Z,981.26
2022-09-04T01:40:51.609Z,981.20
2022-09-04T01:41:51.631Z,981.29
2022-09-04T01:42:51.661Z,981.28
2022-09-04T01:43:51.597Z,981.32
2022-09-04T01:44:51.767Z,981.27
2022-09-04T01:45:51.622Z,981.30
2022-09-04T01:46:51.519Z,981.27
2022-09-04T01:47:51.687Z,981.22
2022-09-04T01:48:51.757Z,981.25
2022-09-04T01:49:51.596Z,981.24
2022-09-04T01:50:51.758Z,981.26
2022-09-04T01:51:51.577Z,981.21
2022-09-04T01:52:51.753Z,981.27
2022-09-04T01:53:51.542Z,981.32
2022-09-04T01:54:51.422Z,981.30
2022-09-04T01:55:51.383Z,981.32
2022-09-04T01:56:51.439Z,981.36
2022-09-04T01:57:51.605Z,981.31
2022-09-04T01:58:51.431Z,981.34
2022-09-04T01:59:53.695Z,981.35
2022-09-04T02:00:51.454Z,981.31
2022-09-04T02:01:51.647Z,981.44
2022-09-04T02:02:53.037Z,981.33
2022-09-04T02:03:51.593Z,981.41
2022-09-04T02:04:51.380Z,981.42
2022-09-04T02:05:51.298Z,981.39
2022-09-04T02:06:51.418Z,981.42
2022-09-04T02:07:51.277Z,981.47
2022-09-04T02:08:51.444Z,981.45
2022-09-04T02:09:54.040Z,981.44
2022-09-04T02:10:51.497Z,981.46
2022-09-04T02:11:51.287Z,981.48
2022-09-04T02:12:51.419Z,981.45
2022-09-04T02:13:51.278Z,981.44
2022-09-04T02:14:51.158Z,981.39
2022-09-04T02:15:51.339Z,981.40
2022-09-04T02:16:51.117Z,981.33
2022-09-04T02:17:51.122Z,981.34
2022-09-04T02:18:51.093Z,981.35
2022-09-04T02:19:51.262Z,981.36
2022-09-04T02:20:51.202Z,981.35
2022-09-04T02:21:51.282Z,981.38
2022-09-04T02:22:51.123Z,981.40
2022-09-04T02:23:51.283Z,981.39
2022-09-04T02:24:51.102Z,981.42
2022-09-04T02:25:51.275Z,981.43
2022-09-04T02:26:51.172Z,981.41
2022-09-04T02:27:50.953Z,981.44
2022-09-04T02:28:51.127Z,981.41
2022-09-04T02:29:50.972Z,981.40
2022-09-04T02:30:54.505Z,981.42
2022-09-04T02:31:51.071Z,981.40
2022-09-04T02:32:50.919Z,981.40
2022-09-04T02:33:50.888Z,981.41
2022-09-04T02:34:50.879Z,981.38
2022-09-04T02:35:50.957Z,981.42
2022-09-04T02:36:50.890Z,981.39
2022-09-04T02:37:50.948Z,981.42
2022-09-04T02:38:51.118Z,981.44
2022-09-04T02:39:50.811Z,981.43
2022-09-04T02:40:50.777Z,981.42
2022-09-04T02:41:50.860Z,981.44
2022-09-04T02:42:50.813Z,981.40
2022-09-04T02:43:50.963Z,981.41
2022-09-04T02:44:50.814Z,981.42
2022-09-04T02:45:50.933Z,981.42
2022-09-04T02:46:50.940Z,981.42
2022-09-04T02:47:50.693Z,981.49
2022-09-04T02:48:50.805Z,981.43
2022-09-04T02:49:50.642Z,981.46
2022-09-04T02:50:50.642Z,981.46
2022-09-04T02:51:50.743Z,981.49
2022-09-04T02:52:50.602Z,981.50
2022-09-04T02:53:50.647Z,981.46
2022-09-04T02:54:50.588Z,981.50
2022-09-04T02:55:50.638Z,981.51
2022-09-04T02:56:50.568Z,981.50
2022-09-04T02:57:50.700Z,981.47
2022-09-04T02:58:50.778Z,981.48
2022-09-04T02:59:50.628Z,981.52
2022-09-04T03:00:50.525Z,981.47
2022-09-04T03:01:50.625Z,981.45
2022-09-04T03:02:50.558Z,981.43
2022-09-04T03:03:50.449Z,981.48
2022-09-04T03:04:50.458Z,981.46
2022-09-04T03:05:50.649Z,981.52
2022-09-04T03:06:50.473Z,981.43
2022-09-04T03:07:50.464Z,981.44
2022-09-04T03:08:50.472Z,981.45
2022-09-04T03:09:50.623Z,981.52
2022-09-04T03:10:50.482Z,981.55
2022-09-04T03:11:50.375Z,981.64
2022-09-04T03:12:50.403Z,981.62
2022-09-04T03:13:50.303Z,981.59
2022-09-04T03:14:50.312Z,981.58
2022-09-04T03:15:50.322Z,981.66
2022-09-04T03:16:50.263Z,981.65
2022-09-04T03:17:50.408Z,981.65
2022-09-04T03:18:50.479Z,981.68
2022-09-04T03:19:50.237Z,981.73
2022-09-04T03:20:50.488Z,981.74
2022-09-04T03:21:50.298Z,981.68
2022-09-04T03:22:50.254Z,981.75
2022-09-04T03:23:50.318Z,981.72
2022-09-04T03:24:50.162Z,981.71
2022-09-04T03:25:50.299Z,981.73
2022-09-04T03:26:50.159Z,981.74
2022-09-04T03:27:50.168Z,981.75
2022-09-04T03:28:50.148Z,981.79
2022-09-04T03:29:50.324Z,981.76
2022-09-04T03:30:50.165Z,981.76
2022-09-04T03:31:50.338Z,981.76
2022-09-04T03:32:50.233Z,981.75
2022-09-04T03:33:50.041Z,981.73
2022-09-04T03:34:50.142Z,981.76
2022-09-04T03:35:50.024Z,981.74
2022-09-04T03:36:49.983Z,981.77
2022-09-04T03:37:50.072Z,981.77
2022-09-04T03:38:50.163Z,981.76
2022-09-04T03:39:50.012Z,981.80
2022-09-04T03:40:50.140Z,981.84
2022-09-04T03:41:50.019Z,981.84
2022-09-04T03:42:50.157Z,981.83
2022-09-04T03:43:49.999Z,981.81
2022-09-04T03:44:50.459Z,981.89
2022-09-04T03:45:49.999Z,981.88
2022-09-04T03:46:50.270Z,981.87
2022-09-04T03:47:50.008Z,981.86
2022-09-04T03:48:49.899Z,981.90
2022-09-04T03:49:49.999Z,981.90
2022-09-04T03:50:49.850Z,981.91
2022-09-04T03:51:49.978Z,981.89
2022-09-04T03:52:49.821Z,981.94
2022-09-04T03:53:50.088Z,981.91
2022-09-04T03:54:49.843Z,981.89
2022-09-04T03:55:49.744Z,981.89
2022-09-04T03:56:49.843Z,981.87
2022-09-04T03:57:49.993Z,981.90
2022-09-04T03:58:49.893Z,981.91
2022-09-04T03:59:49.700Z,981.93
2022-09-04T04:00:49.886Z,981.91
2022-09-04T04:01:49.673Z,981.86
2022-09-04T04:02:49.692Z,981.97
2022-09-04T04:03:49.753Z,981.96
2022-09-04T04:04:49.812Z,982.01
2022-09-04T04:05:49.715Z,981.98
2022-09-04T04:06:49.838Z,981.98
2022-09-04T04:07:49.688Z,982.00
2022-09-04T04:08:49.577Z,982.02
2022-09-04T04:09:49.748Z,981.96
2022-09-04T04:10:49.517Z,982.02
2022-09-04T04:11:49.689Z,982.03
2022-09-04T04:12:50.024Z,982.09
2022-09-04T04:13:49.468Z,982.07
2022-09-04T04:14:49.577Z,982.03
2022-09-04T04:15:49.489Z,982.06
2022-09-04T04:16:56.197Z,982.08
2022-09-04T04:17:49.429Z,982.09
2022-09-04T04:18:49.512Z,982.04
2022-09-04T04:19:49.762Z,982.13
2022-09-04T04:20:49.512Z,982.10
2022-09-04T04:21:49.372Z,982.14
2022-09-04T04:22:49.504Z,982.12
2022-09-04T04:23:49.362Z,982.12
2022-09-04T04:24:49.303Z,982.14
2022-09-04T04:25:52.241Z,982.15
2022-09-04T04:26:54.084Z,982.15
2022-09-04T04:27:49.343Z,982.19
2022-09-04T04:28:49.254Z,982.20
2022-09-04T04:29:49.353Z,982.21
2022-09-04T04:30:49.588Z,982.21
2022-09-04T04:31:49.385Z,982.23
2022-09-04T04:32:49.231Z,982.22
2022-09-04T04:33:49.189Z,982.30
2022-09-04T04:34:49.198Z,982.29
2022-09-04T04:35:49.236Z,982.32
2022-09-04T04:36:49.188Z,982.34
2022-09-04T04:37:49.149Z,982.29
2022-09-04T04:38:49.137Z,982.31
2022-09-04T04:39:49.456Z,982.35
2022-09-04T04:40:49.269Z,982.31
2022-09-04T04:41:49.078Z,982.35
2022-09-04T04:42:49.181Z,982.30
2022-09-04T04:43:49.083Z,982.35
2022-09-04T04:44:49.202Z,982.35
2022-09-04T04:45:49.033Z,982.32
2022-09-04T04:46:49.143Z,982.37
2022-09-04T04:47:49.004Z,982.40
2022-09-04T04:48:49.202Z,982.41
2022-09-04T04:49:49.024Z,982.43
2022-09-04T04:50:49.192Z,982.44
2022-09-04T04:51:49.012Z,982.45
2022-09-04T04:52:49.194Z,982.52
2022-09-04T04:53:49.046Z,982.51
2022-09-04T04:54:48.892Z,982.51
2022-09-04T04:55:49.044Z,982.50
2022-09-04T04:56:48.877Z,982.56
2022-09-04T04:57:48.918Z,982.65
2022-09-04T04:58:48.879Z,982.59
2022-09-04T04:59:48.847Z,982.64
2022-09-04T05:00:48.857Z,982.63
2022-09-04T05:01:48.954Z,982.63
2022-09-04T05:02:48.966Z,982.68
2022-09-04T05:03:49.018Z,982.68
2022-09-04T05:04:48.881Z,982.68
2022-09-04T05:05:48.748Z,982.70
2022-09-04T05:06:48.859Z,982.72
2022-09-04T05:07:48.797Z,982.66
2022-09-04T05:08:48.722Z,982.72
2022-09-04T05:09:48.713Z,982.78
2022-09-04T05:10:48.664Z,982.75
2022-09-04T05:11:48.722Z,982.77
2022-09-04T05:12:48.722Z,982.78
2022-09-04T05:13:51.604Z,982.70
2022-09-04T05:14:48.885Z,982.75
2022-09-04T05:16:07.884Z,982.80
2022-09-04T05:16:53.459Z,982.82
2022-09-04T05:17:48.721Z,982.84
2022-09-04T05:18:48.622Z,982.79
2022-09-04T05:19:50.107Z,982.85
2022-09-04T05:20:48.581Z,982.86
2022-09-04T05:21:48.547Z,982.88
2022-09-04T05:22:48.519Z,982.88
2022-09-04T05:23:48.597Z,982.99
2022-09-04T05:24:48.567Z,982.97
2022-09-04T05:25:48.487Z,982.96
2022-09-04T05:26:48.547Z,982.96
2022-09-04T05:27:48.707Z,982.97
2022-09-04T05:28:48.617Z,982.93
2022-09-04T05:29:48.447Z,982.96
2022-09-04T05:30:48.473Z,982.94
2022-09-04T05:31:48.380Z,982.90
2022-09-04T05:32:48.561Z,982.93
2022-09-04T05:33:48.483Z,983.04
2022-09-04T05:34:48.552Z,982.96
2022-09-04T05:35:48.392Z,983.01
2022-09-04T05:36:48.314Z,982.98
2022-09-04T05:37:48.384Z,982.98
2022-09-04T05:38:48.372Z,982.95
2022-09-04T05:39:48.444Z,982.90
2022-09-04T05:40:48.543Z,982.92
2022-09-04T05:41:48.402Z,982.99
2022-09-04T05:42:48.222Z,983.01
2022-09-04T05:43:48.293Z,983.03
2022-09-04T05:44:48.217Z,983.05
2022-09-04T05:45:48.207Z,983.03
2022-09-04T05:46:51.874Z,983.02
2022-09-04T05:47:48.408Z,983.05
2022-09-04T05:48:48.228Z,983.04
2022-09-04T05:49:48.448Z,983.05
2022-09-04T05:50:48.237Z,983.04
2022-09-04T05:51:48.379Z,983.09
2022-09-04T05:52:48.238Z,983.04
2022-09-04T05:53:48.117Z,983.06
2022-09-04T05:54:48.308Z,983.11
2022-09-04T05:55:48.098Z,983.11
2022-09-04T05:56:48.243Z,983.11
2022-09-04T05:57:48.082Z,983.12
2022-09-04T05:58:48.022Z,983.14
2022-09-04T05:59:48.073Z,983.10
2022-09-04T06:00:48.043Z,983.16
2022-09-04T06:01:51.822Z,983.15
2022-09-04T06:02:48.293Z,983.09
2022-09-04T06:03:48.062Z,983.15
2022-09-04T06:04:47.942Z,983.10
2022-09-04T06:05:48.002Z,983.19
2022-09-04T06:06:47.902Z,983.20
2022-09-04T06:07:47.928Z,983.18
2022-09-04T06:08:47.920Z,983.20
2022-09-04T06:09:47.888Z,983.19
2022-09-04T06:10:47.910Z,983.22
2022-09-04T06:11:48.147Z,983.23
2022-09-04T06:12:47.919Z,983.16
2022-09-04T06:13:47.828Z,983.19
2022-09-04T06:14:47.917Z,983.28
2022-09-04T06:15:47.814Z,983.32
2022-09-04T06:16:48.006Z,983.24
2022-09-04T06:17:47.769Z,983.26
2022-09-04T06:18:47.916Z,983.18
2022-09-04T06:19:47.763Z,983.14
2022-09-04T06:20:47.932Z,983.14
2022-09-04T06:21:47.732Z,983.21
2022-09-04T06:22:49.517Z,983.19
2022-09-04T06:23:47.752Z,983.22
2022-09-04T06:24:47.902Z,983.24
2022-09-04T06:25:47.732Z,983.21
2022-09-04T06:26:47.703Z,983.20
2022-09-04T06:27:47.732Z,983.23
2022-09-04T06:28:47.896Z,983.26
2022-09-04T06:29:47.742Z,983.33
2022-09-04T06:30:47.707Z,983.35
2022-09-04T06:31:47.748Z,983.32
2022-09-04T06:32:49.150Z,983.27
2022-09-04T06:33:47.746Z,983.29
2022-09-04T06:34:47.569Z,983.29
2022-09-04T06:35:47.757Z,983.26
2022-09-04T06:36:47.576Z,983.26
2022-09-04T06:37:47.808Z,983.33
2022-09-04T06:38:47.577Z,983.30
2022-09-04T06:39:47.765Z,983.31
2022-09-04T06:40:47.577Z,983.30
2022-09-04T06:41:47.462Z,983.36
2022-09-04T06:42:47.570Z,983.36
2022-09-04T06:43:47.502Z,983.33
2022-09-04T06:44:47.411Z,983.34
2022-09-04T06:45:47.362Z,983.34
2022-09-04T06:46:47.510Z,983.30
2022-09-04T06:47:47.362Z,983.40
2022-09-04T06:48:47.573Z,983.41
2022-09-04T06:49:47.373Z,983.45
2022-09-04T06:50:47.304Z,983.38
2022-09-04T06:51:47.286Z,983.34
2022-09-04T06:52:47.288Z,983.44
2022-09-04T06:53:47.287Z,983.46
2022-09-04T06:54:47.317Z,983.43
2022-09-04T06:55:47.247Z,983.43
2022-09-04T06:56:47.278Z,983.48
2022-09-04T06:57:47.208Z,983.48
2022-09-04T06:58:47.268Z,983.51
2022-09-04T06:59:47.257Z,983.54
2022-09-04T07:00:47.267Z,983.58
2022-09-04T07:01:47.271Z,983.57
2022-09-04T07:02:47.390Z,983.47
2022-09-04T07:03:47.146Z,983.56
2022-09-04T07:04:47.234Z,983.55
2022-09-04T07:05:47.123Z,983.54
2022-09-04T07:06:47.083Z,983.53
2022-09-04T07:07:47.152Z,983.54
2022-09-04T07:08:47.071Z,983.55
2022-09-04T07:09:47.093Z,983.56
2022-09-04T07:10:47.092Z,983.54
2022-09-04T07:11:47.112Z,983.61
2022-09-04T07:12:47.016Z,983.64
2022-09-04T07:13:47.092Z,983.63
2022-09-04T07:14:47.017Z,983.67
2022-09-04T07:15:47.544Z,983.66
2022-09-04T07:16:46.947Z,983.70
2022-09-04T07:17:46.958Z,983.69
2022-09-04T07:18:46.947Z,983.70
2022-09-04T07:19:47.090Z,983.65
2022-09-04T07:20:47.037Z,983.69
2022-09-04T07:21:46.879Z,983.72
2022-09-04T07:22:46.926Z,983.68
2022-09-04T07:23:46.876Z,983.65
2022-09-04T07:24:46.927Z,983.68
2022-09-04T07:25:46.844Z,983.68
2022-09-04T07:26:47.063Z,983.74
2022-09-04T07:27:46.803Z,983.70
2022-09-04T07:28:46.932Z,983.77
2022-09-04T07:29:46.792Z,983.79
2022-09-04T07:30:46.943Z,983.80
2022-09-04T07:31:46.928Z,983.78
2022-09-04T07:32:46.742Z,983.83
2022-09-04T07:33:46.772Z,983.89
2022-09-04T07:34:46.942Z,983.91
2022-09-04T07:35:46.772Z,983.90
2022-09-04T07:36:46.734Z,983.94
2022-09-04T07:37:46.789Z,983.92
2022-09-04T07:38:50.908Z,983.98
2022-09-04T07:39:46.864Z,983.92
2022-09-04T07:40:46.626Z,983.99
2022-09-04T07:41:46.876Z,984.00
2022-09-04T07:42:46.609Z,984.02
2022-09-04T07:43:49.213Z,984.01
2022-09-04T07:44:46.599Z,983.95
2022-09-04T07:45:46.833Z,984.01
2022-09-04T07:46:46.707Z,984.01
2022-09-04T07:47:46.544Z,984.02
2022-09-04T07:48:46.534Z,984.06
2022-09-04T07:49:46.782Z,984.06
2022-09-04T07:50:46.644Z,984.09
2022-09-04T07:51:46.493Z,984.09
2022-09-04T07:52:46.672Z,984.04
2022-09-04T07:53:46.472Z,984.06
2022-09-04T07:54:46.602Z,984.05
2022-09-04T07:55:46.412Z,984.04
2022-09-04T07:56:46.693Z,984.07
2022-09-04T07:57:46.462Z,984.04
2022-09-04T07:58:46.616Z,984.05
2022-09-04T07:59:46.487Z,984.04
2022-09-04T08:00:46.357Z,984.11
2022-09-04T08:01:46.536Z,984.11
2022-09-04T08:02:46.417Z,984.11
2022-09-04T08:03:53.890Z,984.16
2022-09-04T08:04:46.415Z,984.23
2022-09-04T08:05:46.298Z,984.21
2022-09-04T08:06:46.298Z,984.27
2022-09-04T08:07:46.327Z,984.29
2022-09-04T08:08:46.328Z,984.31
2022-09-04T08:09:46.487Z,984.30
2022-09-04T08:10:46.313Z,984.25
2022-09-04T08:11:46.493Z,984.27
2022-09-04T08:12:46.404Z,984.26
2022-09-04T08:13:46.204Z,984.27
2022-09-04T08:14:46.323Z,984.29
2022-09-04T08:15:46.556Z,984.29
2022-09-04T08:16:46.153Z,984.31
2022-09-04T08:17:46.153Z,984.35
2022-09-04T08:18:46.213Z,984.30
2022-09-04T08:19:46.158Z,984.36
2022-09-04T08:20:46.118Z,984.35
2022-09-04T08:21:46.148Z,984.33
2022-09-04T08:22:46.077Z,984.32
2022-09-04T08:23:46.129Z,984.29
2022-09-04T08:24:46.378Z,984.32
2022-09-04T08:25:46.137Z,984.32
2022-09-04T08:26:46.007Z,984.41
2022-09-04T08:27:46.168Z,984.37
2022-09-04T08:28:46.570Z,984.38
2022-09-04T08:29:46.207Z,984.39
2022-09-04T08:30:46.086Z,984.36
2022-09-04T08:31:45.973Z,984.35
2022-09-04T08:32:45.992Z,984.40
2022-09-04T08:33:45.956Z,984.43
2022-09-04T08:34:46.098Z,984.46
2022-09-04T08:35:46.144Z,984.44
2022-09-04T08:36:46.015Z,984.48
2022-09-04T08:37:46.144Z,984.49
2022-09-04T08:38:45.863Z,984.48
2022-09-04T08:39:45.953Z,984.48
2022-09-04T08:40:45.903Z,984.46
2022-09-04T08:41:45.838Z,984.52
2022-09-04T08:42:45.839Z,984.54
2022-09-04T08:43:45.857Z,984.44
2022-09-04T08:44:45.798Z,984.50
2022-09-04T08:45:45.921Z,984.47
2022-09-04T08:46:47.547Z,984.46
2022-09-04T08:47:45.841Z,984.44
2022-09-04T08:48:45.739Z,984.45
2022-09-04T08:49:45.829Z,984.47
2022-09-04T08:50:45.701Z,984.45
2022-09-04T08:51:45.938Z,984.41
2022-09-04T08:52:45.694Z,984.47
2022-09-04T08:53:45.672Z,984.46
2022-09-04T08:54:45.682Z,984.45
2022-09-04T08:55:45.652Z,984.52
2022-09-04T08:56:45.673Z,984.51
2022-09-04T08:57:45.913Z,984.45
2022-09-04T08:58:47.968Z,984.46
2022-09-04T08:59:45.582Z,984.47
2022-09-04T09:00:45.682Z,984.45
2022-09-04T09:01:45.919Z,984.47
2022-09-04T09:02:45.752Z,984.52
2022-09-04T09:03:45.645Z,984.51
2022-09-04T09:04:45.519Z,984.57
2022-09-04T09:05:45.529Z,984.49
2022-09-04T09:06:45.677Z,984.57
2022-09-04T09:07:45.508Z,984.57
2022-09-04T09:08:45.737Z,984.64
2022-09-04T09:09:45.507Z,984.56
2022-09-04T09:10:45.428Z,984.60
2022-09-04T09:11:45.497Z,984.62
2022-09-04T09:12:45.677Z,984.58
2022-09-04T09:13:45.585Z,984.63
2022-09-04T09:14:45.394Z,984.56
2022-09-04T09:15:45.523Z,984.57
2022-09-04T09:16:45.424Z,984.59
2022-09-04T09:17:45.346Z,984.64
2022-09-04T09:18:45.431Z,984.60
2022-09-04T09:19:45.311Z,984.67
2022-09-04T09:20:45.351Z,984.57
2022-09-04T09:21:45.286Z,984.56
2022-09-04T09:22:45.362Z,984.62
2022-09-04T09:23:45.278Z,984.63
2022-09-04T09:24:45.436Z,984.58
2022-09-04T09:25:45.227Z,984.59
2022-09-04T09:26:45.349Z,984.62
2022-09-04T09:27:45.217Z,984.64
2022-09-04T09:28:45.263Z,984.71
2022-09-04T09:29:45.256Z,984.69
2022-09-04T09:30:45.407Z,984.66
2022-09-04T09:31:45.187Z,984.70
2022-09-04T09:32:45.337Z,984.62
2022-09-04T09:33:45.193Z,984.64
2022-09-04T09:34:45.223Z,984.68
2022-09-04T09:35:45.212Z,984.67
2022-09-04T09:36:45.116Z,984.68
2022-09-04T09:37:45.172Z,984.63
2022-09-04T09:38:45.062Z,984.60
2022-09-04T09:39:45.110Z,984.61
2022-09-04T09:40:45.092Z,984.60
2022-09-04T09:41:45.183Z,984.65
2022-09-04T09:42:45.023Z,984.72
2022-09-04T09:43:45.196Z,984.68
2022-09-04T09:44:45.027Z,984.64
2022-09-04T09:45:45.117Z,984.69
2022-09-04T09:46:45.027Z,984.67
2022-09-04T09:47:44.942Z,984.66
2022-09-04T09:48:45.019Z,984.72
2022-09-04T09:49:44.910Z,984.68
2022-09-04T09:50:45.036Z,984.67
2022-09-04T09:51:44.949Z,984.68
2022-09-04T09:52:45.020Z,984.72
2022-09-04T09:53:47.234Z,984.69
2022-09-04T09:54:44.861Z,984.71
2022-09-04T09:55:44.872Z,984.69
2022-09-04T09:56:53.525Z,984.66
2022-09-04T09:57:44.862Z,984.69
2022-09-04T09:58:44.811Z,984.63
2022-09-04T09:59:44.868Z,984.66
2022-09-04T10:00:44.761Z,984.62
2022-09-04T10:01:44.912Z,984.57
2022-09-04T10:02:45.181Z,984.54
2022-09-04T10:03:44.740Z,984.57
2022-09-04T10:04:44.719Z,984.55
2022-09-04T10:05:44.700Z,984.58
2022-09-04T10:06:44.711Z,984.52
2022-09-04T10:07:44.758Z,984.56
2022-09-04T10:08:44.708Z,984.61
2022-09-04T10:09:44.648Z,984.54
2022-09-04T10:10:44.706Z,984.55
2022-09-04T10:11:44.868Z,984.54
2022-09-04T10:12:44.721Z,984.60
2022-09-04T10:13:44.671Z,984.63
2022-09-04T10:14:44.723Z,984.59
2022-09-04T10:15:44.582Z,984.60
2022-09-04T10:16:44.904Z,984.58
2022-09-04T10:17:44.559Z,984.61
2022-09-04T10:18:44.604Z,984.62
2022-09-04T10:19:44.543Z,984.60
2022-09-04T10:20:44.714Z,984.57
2022-09-04T10:21:44.556Z,984.61
2022-09-04T10:22:44.499Z,984.60
2022-09-04T10:23:44.546Z,984.62
2022-09-04T10:24:44.787Z,984.59
2022-09-04T10:25:44.539Z,984.53
2022-09-04T10:26:44.699Z,984.60
2022-09-04T10:27:44.539Z,984.64
2022-09-04T10:28:44.396Z,984.54
2022-09-04T10:29:44.471Z,984.56
2022-09-04T10:30:44.522Z,984.54
2022-09-04T10:31:44.561Z,984.54
2022-09-04T10:32:44.401Z,984.54
2022-09-04T10:33:44.542Z,984.51
2022-09-04T10:34:44.393Z,984.51
2022-09-04T10:35:44.612Z,984.51
2022-09-04T10:36:44.408Z,984.55
2022-09-04T10:37:44.531Z,984.49
2022-09-04T10:38:44.401Z,984.49
2022-09-04T10:39:44.634Z,984.50
2022-09-04T10:40:47.029Z,984.45
2022-09-04T10:41:44.256Z,984.53
2022-09-04T10:42:44.226Z,984.51
2022-09-04T10:43:44.236Z,984.52
2022-09-04T10:44:44.207Z,984.51
2022-09-04T10:45:44.347Z,984.58
2022-09-04T10:46:44.178Z,984.54
2022-09-04T10:47:44.226Z,984.55
2022-09-04T10:48:44.137Z,984.52
2022-09-04T10:49:44.136Z,984.53
2022-09-04T10:50:44.399Z,984.60
2022-09-04T10:51:44.307Z,984.55
2022-09-04T10:52:44.122Z,984.55
2022-09-04T10:53:44.082Z,984.49
2022-09-04T10:54:44.071Z,984.48
2022-09-04T10:55:44.221Z,984.50
2022-09-04T10:56:44.143Z,984.49
2022-09-04T10:57:44.232Z,984.51
2022-09-04T10:58:44.061Z,984.47
2022-09-04T10:59:44.013Z,984.53
2022-09-04T11:00:44.110Z,984.57
2022-09-04T11:01:44.296Z,984.53
2022-09-04T11:02:44.142Z,984.56
2022-09-04T11:03:43.939Z,984.57
2022-09-04T11:04:44.067Z,984.57
2022-09-04T11:05:44.216Z,984.60
2022-09-04T11:06:43.977Z,984.60
2022-09-04T11:07:43.909Z,984.55
2022-09-04T11:08:43.876Z,984.53
2022-09-04T11:09:43.906Z,984.58
2022-09-04T11:10:44.073Z,984.54
2022-09-04T11:11:43.982Z,984.60
2022-09-04T11:12:44.063Z,984.62
2022-09-04T11:13:47.002Z,984.59
2022-09-04T11:14:44.071Z,984.64
2022-09-04T11:15:43.901Z,984.60
2022-09-04T11:16:44.116Z,984.65
2022-09-04T11:17:43.822Z,984.65
2022-09-04T11:18:43.743Z,984.73
2022-09-04T11:19:43.722Z,984.67
2022-09-04T11:20:43.778Z,984.68
2022-09-04T11:21:43.909Z,984.66
2022-09-04T11:22:43.837Z,984.66
2022-09-04T11:23:43.907Z,984.62
2022-09-04T11:24:43.750Z,984.57
2022-09-04T11:25:43.648Z,984.58
2022-09-04T11:26:43.736Z,984.64
2022-09-04T11:27:43.916Z,984.61
2022-09-04T11:28:43.826Z,984.59
2022-09-04T11:29:43.590Z,984.57
2022-09-04T11:30:47.928Z,984.52
2022-09-04T11:31:43.635Z,984.57
2022-09-04T11:32:43.761Z,984.53
2022-09-04T11:33:43.592Z,984.61
2022-09-04T11:34:43.833Z,984.54
2022-09-04T11:35:43.582Z,984.59
2022-09-04T11:36:43.502Z,984.54
2022-09-04T11:37:43.591Z,984.54
2022-09-04T11:38:43.864Z,984.56
2022-09-04T11:39:43.761Z,984.60
2022-09-04T11:40:43.476Z,984.56
2022-09-04T11:41:43.588Z,984.58
2022-09-04T11:42:43.416Z,984.54
2022-09-04T11:43:43.417Z,984.56
2022-09-04T11:44:43.438Z,984.53
2022-09-04T11:45:43.699Z,984.51
2022-09-04T11:46:43.426Z,984.51
2022-09-04T11:47:43.357Z,984.50
2022-09-04T11:48:43.432Z,984.54
2022-09-04T11:49:43.337Z,984.48
2022-09-04T11:50:43.413Z,984.52
2022-09-04T11:51:43.313Z,984.49
2022-09-04T11:52:43.441Z,984.50
2022-09-04T11:53:43.272Z,984.54
2022-09-04T11:54:43.413Z,984.54
2022-09-04T11:55:43.342Z,984.51
2022-09-04T11:56:43.421Z,984.53
2022-09-04T11:57:43.272Z,984.52
2022-09-04T11:58:43.212Z,984.49
2022-09-04T11:59:43.262Z,984.57
2022-09-04T12:00:43.206Z,984.51
2022-09-04T12:01:47.501Z,984.48
2022-09-04T12:02:43.442Z,984.49
2022-09-04T12:03:43.350Z,984.46
2022-09-04T12:04:43.138Z,984.44
2022-09-04T12:05:43.118Z,984.46
2022-09-04T12:06:43.167Z,984.46
2022-09-04T12:07:43.621Z,984.47
2022-09-04T12:08:43.107Z,984.42
2022-09-04T12:09:43.273Z,984.43
2022-09-04T12:10:43.098Z,984.47
2022-09-04T12:11:43.121Z,984.49
2022-09-04T12:12:43.123Z,984.47
2022-09-04T12:13:43.003Z,984.46
2022-09-04T12:14:43.114Z,984.44
2022-09-04T12:15:43.263Z,984.40
2022-09-04T12:16:44.479Z,984.39
2022-09-04T12:17:43.023Z,984.35
2022-09-04T12:18:43.112Z,984.37
2022-09-04T12:19:42.942Z,984.31
2022-09-04T12:20:42.912Z,984.35
2022-09-04T12:21:42.949Z,984.41
2022-09-04T12:22:43.128Z,984.35
2022-09-04T12:23:42.948Z,984.31
2022-09-04T12:24:42.897Z,984.37
2022-09-04T12:25:42.958Z,984.32
2022-09-04T12:26:52.106Z,984.34
2022-09-04T12:27:43.030Z,984.30
2022-09-04T12:28:42.828Z,984.34